sensor_id;sensor_type;location;lat;lon;timestamp;P1;durP1;ratioP1;P2;durP2;ratioP2
3543;SDS011;1786;52.870;9.578;2023-04-25T00:02:17;6.97;;;2.83;;
3543;SDS011;1786;52.870;9.578;2023-04-25T00:04:44;3.37;;;2.77;;
3543;SDS011;1786;52.870;9.578;2023-04-25T00:07:11;4.57;;;2.43;;
3543;SDS011;1786;52.870;9.578;2023-04-25T00:09:37;7.73;;;3.00;;
3543;SDS011;1786;52.870;9.578;2023-04-25T00:12:04;3.93;;;2.70;;
3543;SDS011;1786;52.870;9.578;2023-04-25T00:14:31;5.87;;;2.90;;
3543;SDS011;1786;52.870;9.578;2023-04-25T00:17:00;8.63;;;2.73;;
3543;SDS011;1786;52.870;9.578;2023-04-25T00:19:27;4.53;;;2.57;;
3543;SDS011;1786;52.870;9.578;2023-04-25T00:21:55;4.13;;;3.33;;
3543;SDS011;1786;52.870;9.578;2023-04-25T00:24:21;5.10;;;2.60;;
3543;SDS011;1786;52.870;9.578;2023-04-25T00:26:48;4.40;;;2.70;;
3543;SDS011;1786;52.870;9.578;2023-04-25T00:29:15;5.80;;;2.43;;
3543;SDS011;1786;52.870;9.578;2023-04-25T00:31:42;3.13;;;2.10;;
3543;SDS011;1786;52.870;9.578;2023-04-25T00:34:08;5.47;;;2.57;;
3543;SDS011;1786;52.870;9.578;2023-04-25T00:36:35;8.00;;;2.80;;
3543;SDS011;1786;52.870;9.578;2023-04-25T00:39:03;4.83;;;2.77;;
3543;SDS011;1786;52.870;9.578;2023-04-25T00:41:30;3.23;;;2.77;;
3543;SDS011;1786;52.870;9.578;2023-04-25T00:43:57;4.63;;;3.03;;
3543;SDS011;1786;52.870;9.578;2023-04-25T00:46:24;10.47;;;2.60;;
3543;SDS011;1786;52.870;9.578;2023-04-25T00:48:51;6.07;;;2.83;;
3543;SDS011;1786;52.870;9.578;2023-04-25T00:51:19;10.03;;;2.83;;
3543;SDS011;1786;52.870;9.578;2023-04-25T00:53:46;4.40;;;2.77;;
3543;SDS011;1786;52.870;9.578;2023-04-25T00:56:14;4.37;;;2.53;;
3543;SDS011;1786;52.870;9.578;2023-04-25T00:58:40;5.03;;;2.80;;
3543;SDS011;1786;52.870;9.578;2023-04-25T01:01:08;2.93;;;2.53;;
3543;SDS011;1786;52.870;9.578;2023-04-25T01:03:37;2.30;;;2.10;;
3543;SDS011;1786;52.870;9.578;2023-04-25T01:06:08;2.30;;;2.10;;
3543;SDS011;1786;52.870;9.578;2023-04-25T01:08:36;8.27;;;2.60;;
3543;SDS011;1786;52.870;9.578;2023-04-25T01:11:03;7.00;;;3.37;;
3543;SDS011;1786;52.870;9.578;2023-04-25T01:13:31;14.40;;;4.00;;
3543;SDS011;1786;52.870;9.578;2023-04-25T01:15:58;10.07;;;4.27;;
3543;SDS011;1786;52.870;9.578;2023-04-25T01:18:25;21.80;;;3.93;;
3543;SDS011;1786;52.870;9.578;2023-04-25T01:20:52;11.30;;;3.10;;
3543;SDS011;1786;52.870;9.578;2023-04-25T01:23:20;12.73;;;3.67;;
3543;SDS011;1786;52.870;9.578;2023-04-25T01:25:50;20.30;;;3.40;;
3543;SDS011;1786;52.870;9.578;2023-04-25T01:28:17;16.03;;;3.30;;
3543;SDS011;1786;52.870;9.578;2023-04-25T01:30:43;13.60;;;2.77;;
3543;SDS011;1786;52.870;9.578;2023-04-25T01:33:11;12.93;;;3.53;;
3543;SDS011;1786;52.870;9.578;2023-04-25T01:35:38;15.60;;;3.60;;
3543;SDS011;1786;52.870;9.578;2023-04-25T01:38:05;17.90;;;4.90;;
3543;SDS011;1786;52.870;9.578;2023-04-25T01:40:32;26.33;;;4.23;;
3543;SDS011;1786;52.870;9.578;2023-04-25T01:42:59;12.03;;;2.93;;
3543;SDS011;1786;52.870;9.578;2023-04-25T01:45:26;11.20;;;2.87;;
3543;SDS011;1786;52.870;9.578;2023-04-25T01:47:53;18.17;;;3.93;;
3543;SDS011;1786;52.870;9.578;2023-04-25T01:50:19;18.53;;;3.00;;
3543;SDS011;1786;52.870;9.578;2023-04-25T01:52:47;10.43;;;3.87;;
3543;SDS011;1786;52.870;9.578;2023-04-25T01:55:14;15.27;;;4.37;;
3543;SDS011;1786;52.870;9.578;2023-04-25T01:58:02;13.67;;;3.77;;
3543;SDS011;1786;52.870;9.578;2023-04-25T02:00:47;17.67;;;3.13;;
3543;SDS011;1786;52.870;9.578;2023-04-25T02:03:14;21.23;;;4.13;;
3543;SDS011;1786;52.870;9.578;2023-04-25T02:05:42;15.30;;;3.80;;
3543;SDS011;1786;52.870;9.578;2023-04-25T02:08:11;21.97;;;3.43;;
3543;SDS011;1786;52.870;9.578;2023-04-25T02:10:37;17.40;;;3.80;;
3543;SDS011;1786;52.870;9.578;2023-04-25T02:13:13;7.60;;;2.83;;
3543;SDS011;1786;52.870;9.578;2023-04-25T02:15:59;14.23;;;3.90;;
3543;SDS011;1786;52.870;9.578;2023-04-25T02:18:26;17.07;;;3.80;;
3543;SDS011;1786;52.870;9.578;2023-04-25T02:20:52;16.80;;;3.60;;
3543;SDS011;1786;52.870;9.578;2023-04-25T02:23:19;10.80;;;2.83;;
3543;SDS011;1786;52.870;9.578;2023-04-25T02:25:46;23.37;;;3.90;;
3543;SDS011;1786;52.870;9.578;2023-04-25T02:28:13;13.90;;;4.23;;
3543;SDS011;1786;52.870;9.578;2023-04-25T02:30:40;16.73;;;3.63;;
3543;SDS011;1786;52.870;9.578;2023-04-25T02:33:06;17.77;;;3.67;;
3543;SDS011;1786;52.870;9.578;2023-04-25T02:35:35;21.13;;;4.40;;
3543;SDS011;1786;52.870;9.578;2023-04-25T02:38:02;20.10;;;4.80;;
3543;SDS011;1786;52.870;9.578;2023-04-25T02:40:28;20.93;;;4.10;;
3543;SDS011;1786;52.870;9.578;2023-04-25T02:42:56;25.73;;;4.00;;
3543;SDS011;1786;52.870;9.578;2023-04-25T02:45:25;17.20;;;4.07;;
3543;SDS011;1786;52.870;9.578;2023-04-25T02:47:52;21.10;;;4.50;;
3543;SDS011;1786;52.870;9.578;2023-04-25T02:50:19;26.73;;;3.93;;
3543;SDS011;1786;52.870;9.578;2023-04-25T02:52:45;25.57;;;4.67;;
3543;SDS011;1786;52.870;9.578;2023-04-25T02:55:16;10.87;;;3.53;;
3543;SDS011;1786;52.870;9.578;2023-04-25T02:57:44;17.27;;;4.00;;
3543;SDS011;1786;52.870;9.578;2023-04-25T03:00:14;14.93;;;4.10;;
3543;SDS011;1786;52.870;9.578;2023-04-25T03:02:41;17.50;;;6.93;;
3543;SDS011;1786;52.870;9.578;2023-04-25T03:05:08;23.13;;;5.10;;
3543;SDS011;1786;52.870;9.578;2023-04-25T03:07:35;25.57;;;4.80;;
3543;SDS011;1786;52.870;9.578;2023-04-25T03:10:02;18.10;;;3.50;;
3543;SDS011;1786;52.870;9.578;2023-04-25T03:12:30;15.40;;;4.30;;
3543;SDS011;1786;52.870;9.578;2023-04-25T03:14:57;27.27;;;3.97;;
3543;SDS011;1786;52.870;9.578;2023-04-25T03:17:24;17.97;;;4.80;;
3543;SDS011;1786;52.870;9.578;2023-04-25T03:19:51;25.30;;;5.17;;
3543;SDS011;1786;52.870;9.578;2023-04-25T03:22:17;18.43;;;4.00;;
3543;SDS011;1786;52.870;9.578;2023-04-25T03:24:45;23.60;;;4.20;;
3543;SDS011;1786;52.870;9.578;2023-04-25T03:27:13;15.87;;;3.90;;
3543;SDS011;1786;52.870;9.578;2023-04-25T03:29:39;20.27;;;4.20;;
3543;SDS011;1786;52.870;9.578;2023-04-25T03:32:08;21.83;;;4.27;;
3543;SDS011;1786;52.870;9.578;2023-04-25T03:34:34;18.77;;;3.40;;
3543;SDS011;1786;52.870;9.578;2023-04-25T03:37:01;13.30;;;3.03;;
3543;SDS011;1786;52.870;9.578;2023-04-25T03:39:31;22.73;;;4.20;;
3543;SDS011;1786;52.870;9.578;2023-04-25T03:41:57;17.77;;;3.57;;
3543;SDS011;1786;52.870;9.578;2023-04-25T03:44:24;15.60;;;3.20;;
3543;SDS011;1786;52.870;9.578;2023-04-25T03:46:50;18.47;;;3.20;;
3543;SDS011;1786;52.870;9.578;2023-04-25T03:49:17;23.37;;;3.80;;
3543;SDS011;1786;52.870;9.578;2023-04-25T03:51:57;19.37;;;4.70;;
3543;SDS011;1786;52.870;9.578;2023-04-25T03:54:24;18.00;;;3.87;;
3543;SDS011;1786;52.870;9.578;2023-04-25T03:57:02;12.20;;;3.57;;
3543;SDS011;1786;52.870;9.578;2023-04-25T03:59:34;19.40;;;3.80;;
3543;SDS011;1786;52.870;9.578;2023-04-25T04:02:02;21.40;;;3.40;;
3543;SDS011;1786;52.870;9.578;2023-04-25T04:04:30;18.00;;;4.17;;
3543;SDS011;1786;52.870;9.578;2023-04-25T04:06:59;16.43;;;3.70;;
3543;SDS011;1786;52.870;9.578;2023-04-25T04:09:29;23.13;;;4.57;;
3543;SDS011;1786;52.870;9.578;2023-04-25T04:11:58;21.60;;;4.20;;
3543;SDS011;1786;52.870;9.578;2023-04-25T04:14:24;18.93;;;4.27;;
3543;SDS011;1786;52.870;9.578;2023-04-25T04:16:51;25.40;;;4.10;;
3543;SDS011;1786;52.870;9.578;2023-04-25T04:19:18;12.00;;;3.90;;
3543;SDS011;1786;52.870;9.578;2023-04-25T04:22:03;18.53;;;3.40;;
3543;SDS011;1786;52.870;9.578;2023-04-25T04:24:30;19.20;;;3.60;;
3543;SDS011;1786;52.870;9.578;2023-04-25T04:27:01;15.73;;;3.70;;
3543;SDS011;1786;52.870;9.578;2023-04-25T04:29:32;20.33;;;4.53;;
3543;SDS011;1786;52.870;9.578;2023-04-25T04:32:10;16.60;;;4.00;;
3543;SDS011;1786;52.870;9.578;2023-04-25T04:34:37;20.50;;;4.00;;
3543;SDS011;1786;52.870;9.578;2023-04-25T04:37:03;15.03;;;4.13;;
3543;SDS011;1786;52.870;9.578;2023-04-25T04:39:31;24.20;;;4.27;;
3543;SDS011;1786;52.870;9.578;2023-04-25T04:42:06;29.40;;;4.60;;
3543;SDS011;1786;52.870;9.578;2023-04-25T04:44:49;24.63;;;4.33;;
3543;SDS011;1786;52.870;9.578;2023-04-25T04:47:39;13.97;;;3.50;;
3543;SDS011;1786;52.870;9.578;2023-04-25T04:50:32;20.07;;;3.30;;
3543;SDS011;1786;52.870;9.578;2023-04-25T04:53:17;29.43;;;4.30;;
3543;SDS011;1786;52.870;9.578;2023-04-25T04:56:08;14.87;;;3.57;;
3543;SDS011;1786;52.870;9.578;2023-04-25T04:58:59;13.70;;;3.93;;
3543;SDS011;1786;52.870;9.578;2023-04-25T05:01:58;18.50;;;3.40;;
3543;SDS011;1786;52.870;9.578;2023-04-25T05:04:44;18.07;;;3.73;;
3543;SDS011;1786;52.870;9.578;2023-04-25T05:07:31;17.33;;;4.17;;
3543;SDS011;1786;52.870;9.578;2023-04-25T05:10:03;23.30;;;4.10;;
3543;SDS011;1786;52.870;9.578;2023-04-25T05:12:49;17.80;;;4.03;;
3543;SDS011;1786;52.870;9.578;2023-04-25T05:15:32;14.47;;;3.80;;
3543;SDS011;1786;52.870;9.578;2023-04-25T05:18:17;23.40;;;4.07;;
3543;SDS011;1786;52.870;9.578;2023-04-25T05:21:00;20.07;;;4.10;;
3543;SDS011;1786;52.870;9.578;2023-04-25T05:23:47;17.17;;;4.20;;
3543;SDS011;1786;52.870;9.578;2023-04-25T05:26:40;15.47;;;4.00;;
3543;SDS011;1786;52.870;9.578;2023-04-25T05:29:30;10.63;;;3.30;;
3543;SDS011;1786;52.870;9.578;2023-04-25T05:32:20;17.73;;;3.10;;
3543;SDS011;1786;52.870;9.578;2023-04-25T05:34:48;12.93;;;3.20;;
3543;SDS011;1786;52.870;9.578;2023-04-25T05:37:31;20.33;;;4.37;;
3543;SDS011;1786;52.870;9.578;2023-04-25T05:40:08;17.20;;;3.50;;
3543;SDS011;1786;52.870;9.578;2023-04-25T05:42:49;14.13;;;3.50;;
3543;SDS011;1786;52.870;9.578;2023-04-25T05:45:27;12.47;;;3.17;;
3543;SDS011;1786;52.870;9.578;2023-04-25T05:48:03;15.80;;;2.93;;
3543;SDS011;1786;52.870;9.578;2023-04-25T05:50:41;14.40;;;3.40;;
3543;SDS011;1786;52.870;9.578;2023-04-25T05:53:33;5.93;;;2.57;;
3543;SDS011;1786;52.870;9.578;2023-04-25T05:56:01;16.13;;;3.20;;
3543;SDS011;1786;52.870;9.578;2023-04-25T05:58:28;9.90;;;3.17;;
3543;SDS011;1786;52.870;9.578;2023-04-25T06:00:56;9.70;;;3.10;;
3543;SDS011;1786;52.870;9.578;2023-04-25T06:03:22;8.00;;;3.37;;
3543;SDS011;1786;52.870;9.578;2023-04-25T06:05:50;24.20;;;3.40;;
3543;SDS011;1786;52.870;9.578;2023-04-25T06:08:18;13.63;;;3.20;;
3543;SDS011;1786;52.870;9.578;2023-04-25T06:10:45;12.77;;;2.67;;
3543;SDS011;1786;52.870;9.578;2023-04-25T06:13:12;16.80;;;3.70;;
3543;SDS011;1786;52.870;9.578;2023-04-25T06:15:39;7.30;;;2.90;;
3543;SDS011;1786;52.870;9.578;2023-04-25T06:18:06;9.40;;;2.60;;
3543;SDS011;1786;52.870;9.578;2023-04-25T06:20:33;11.50;;;3.00;;
3543;SDS011;1786;52.870;9.578;2023-04-25T06:23:00;14.47;;;2.57;;
3543;SDS011;1786;52.870;9.578;2023-04-25T06:25:36;11.63;;;2.40;;
3543;SDS011;1786;52.870;9.578;2023-04-25T06:28:03;15.00;;;3.60;;
3543;SDS011;1786;52.870;9.578;2023-04-25T06:30:30;10.03;;;2.93;;
3543;SDS011;1786;52.870;9.578;2023-04-25T06:33:03;11.00;;;3.07;;
3543;SDS011;1786;52.870;9.578;2023-04-25T06:35:30;23.17;;;3.70;;
3543;SDS011;1786;52.870;9.578;2023-04-25T06:37:57;19.73;;;3.10;;
3543;SDS011;1786;52.870;9.578;2023-04-25T06:40:24;16.00;;;2.63;;
3543;SDS011;1786;52.870;9.578;2023-04-25T06:42:51;13.20;;;2.67;;
3543;SDS011;1786;52.870;9.578;2023-04-25T06:45:30;9.97;;;3.33;;
3543;SDS011;1786;52.870;9.578;2023-04-25T06:47:57;18.13;;;2.70;;
3543;SDS011;1786;52.870;9.578;2023-04-25T06:50:24;12.33;;;3.13;;
3543;SDS011;1786;52.870;9.578;2023-04-25T06:52:51;18.97;;;2.87;;
3543;SDS011;1786;52.870;9.578;2023-04-25T06:55:19;7.20;;;2.67;;
3543;SDS011;1786;52.870;9.578;2023-04-25T06:58:04;11.87;;;3.70;;
3543;SDS011;1786;52.870;9.578;2023-04-25T07:00:51;6.57;;;2.27;;
3543;SDS011;1786;52.870;9.578;2023-04-25T07:03:20;5.23;;;1.93;;
3543;SDS011;1786;52.870;9.578;2023-04-25T07:05:49;5.00;;;2.50;;
3543;SDS011;1786;52.870;9.578;2023-04-25T07:08:17;11.33;;;3.10;;
3543;SDS011;1786;52.870;9.578;2023-04-25T07:10:43;8.97;;;2.70;;
3543;SDS011;1786;52.870;9.578;2023-04-25T07:13:10;9.77;;;2.57;;
3543;SDS011;1786;52.870;9.578;2023-04-25T07:15:37;7.73;;;2.90;;
3543;SDS011;1786;52.870;9.578;2023-04-25T07:18:04;7.93;;;2.50;;
3543;SDS011;1786;52.870;9.578;2023-04-25T07:20:31;10.33;;;2.43;;
3543;SDS011;1786;52.870;9.578;2023-04-25T07:23:00;9.70;;;2.40;;
3543;SDS011;1786;52.870;9.578;2023-04-25T07:25:27;4.03;;;2.00;;
3543;SDS011;1786;52.870;9.578;2023-04-25T07:27:54;6.83;;;3.10;;
3543;SDS011;1786;52.870;9.578;2023-04-25T07:30:21;8.30;;;2.70;;
3543;SDS011;1786;52.870;9.578;2023-04-25T07:32:49;7.67;;;2.37;;
3543;SDS011;1786;52.870;9.578;2023-04-25T07:35:16;9.77;;;2.47;;
3543;SDS011;1786;52.870;9.578;2023-04-25T07:37:43;7.30;;;1.93;;
3543;SDS011;1786;52.870;9.578;2023-04-25T07:40:13;14.10;;;2.50;;
3543;SDS011;1786;52.870;9.578;2023-04-25T07:42:49;8.37;;;2.63;;
3543;SDS011;1786;52.870;9.578;2023-04-25T07:45:22;8.27;;;2.43;;
3543;SDS011;1786;52.870;9.578;2023-04-25T07:47:49;15.63;;;2.83;;
3543;SDS011;1786;52.870;9.578;2023-04-25T07:50:16;14.20;;;2.50;;
3543;SDS011;1786;52.870;9.578;2023-04-25T07:52:43;11.73;;;2.87;;
3543;SDS011;1786;52.870;9.578;2023-04-25T07:55:19;7.83;;;2.57;;
3543;SDS011;1786;52.870;9.578;2023-04-25T07:58:00;11.67;;;2.17;;
3543;SDS011;1786;52.870;9.578;2023-04-25T08:00:29;6.50;;;2.20;;
3543;SDS011;1786;52.870;9.578;2023-04-25T08:03:15;14.70;;;2.97;;
3543;SDS011;1786;52.870;9.578;2023-04-25T08:05:43;12.77;;;2.50;;
3543;SDS011;1786;52.870;9.578;2023-04-25T08:08:11;7.60;;;1.83;;
3543;SDS011;1786;52.870;9.578;2023-04-25T08:10:37;12.93;;;2.00;;
3543;SDS011;1786;52.870;9.578;2023-04-25T08:13:04;6.30;;;2.80;;
3543;SDS011;1786;52.870;9.578;2023-04-25T08:15:31;10.10;;;2.20;;
3543;SDS011;1786;52.870;9.578;2023-04-25T08:17:57;7.27;;;2.30;;
3543;SDS011;1786;52.870;9.578;2023-04-25T08:20:25;12.13;;;2.30;;
3543;SDS011;1786;52.870;9.578;2023-04-25T08:22:54;17.63;;;3.00;;
3543;SDS011;1786;52.870;9.578;2023-04-25T08:25:50;5.73;;;2.10;;
3543;SDS011;1786;52.870;9.578;2023-04-25T08:28:20;7.47;;;2.03;;
3543;SDS011;1786;52.870;9.578;2023-04-25T08:30:47;14.03;;;2.10;;
3543;SDS011;1786;52.870;9.578;2023-04-25T08:33:15;7.53;;;1.90;;
3543;SDS011;1786;52.870;9.578;2023-04-25T08:36:10;9.63;;;2.30;;
3543;SDS011;1786;52.870;9.578;2023-04-25T08:38:36;4.87;;;1.77;;
3543;SDS011;1786;52.870;9.578;2023-04-25T08:41:05;10.53;;;2.43;;
3543;SDS011;1786;52.870;9.578;2023-04-25T08:43:32;6.10;;;2.10;;
3543;SDS011;1786;52.870;9.578;2023-04-25T08:46:01;7.77;;;1.80;;
3543;SDS011;1786;52.870;9.578;2023-04-25T08:48:41;5.00;;;2.20;;
3543;SDS011;1786;52.870;9.578;2023-04-25T08:51:08;8.20;;;1.83;;
3543;SDS011;1786;52.870;9.578;2023-04-25T08:53:37;5.40;;;1.67;;
3543;SDS011;1786;52.870;9.578;2023-04-25T08:56:06;3.47;;;1.73;;
3543;SDS011;1786;52.870;9.578;2023-04-25T08:58:35;3.90;;;1.80;;
3543;SDS011;1786;52.870;9.578;2023-04-25T09:01:02;2.53;;;1.97;;
3543;SDS011;1786;52.870;9.578;2023-04-25T09:03:35;8.40;;;1.63;;
3543;SDS011;1786;52.870;9.578;2023-04-25T09:06:03;4.00;;;2.20;;
3543;SDS011;1786;52.870;9.578;2023-04-25T09:08:29;6.27;;;1.80;;
3543;SDS011;1786;52.870;9.578;2023-04-25T09:10:58;3.27;;;1.80;;
3543;SDS011;1786;52.870;9.578;2023-04-25T09:13:26;4.70;;;2.17;;
3543;SDS011;1786;52.870;9.578;2023-04-25T09:16:11;3.37;;;1.47;;
3543;SDS011;1786;52.870;9.578;2023-04-25T09:18:47;5.10;;;1.90;;
3543;SDS011;1786;52.870;9.578;2023-04-25T09:21:16;5.03;;;1.90;;
3543;SDS011;1786;52.870;9.578;2023-04-25T09:23:45;7.50;;;2.03;;
3543;SDS011;1786;52.870;9.578;2023-04-25T09:26:14;7.03;;;2.43;;
3543;SDS011;1786;52.870;9.578;2023-04-25T09:28:41;6.73;;;2.00;;
3543;SDS011;1786;52.870;9.578;2023-04-25T09:31:09;8.37;;;1.83;;
3543;SDS011;1786;52.870;9.578;2023-04-25T09:33:41;10.17;;;1.90;;
3543;SDS011;1786;52.870;9.578;2023-04-25T09:36:08;10.63;;;2.60;;
3543;SDS011;1786;52.870;9.578;2023-04-25T09:38:56;6.60;;;2.30;;
3543;SDS011;1786;52.870;9.578;2023-04-25T09:41:27;4.60;;;1.60;;
3543;SDS011;1786;52.870;9.578;2023-04-25T09:43:56;7.57;;;1.67;;
3543;SDS011;1786;52.870;9.578;2023-04-25T09:46:32;5.17;;;1.80;;
3543;SDS011;1786;52.870;9.578;2023-04-25T09:49:05;3.90;;;1.43;;
3543;SDS011;1786;52.870;9.578;2023-04-25T09:51:38;10.10;;;1.63;;
3543;SDS011;1786;52.870;9.578;2023-04-25T09:54:06;8.63;;;1.80;;
3543;SDS011;1786;52.870;9.578;2023-04-25T09:56:42;8.80;;;2.10;;
3543;SDS011;1786;52.870;9.578;2023-04-25T09:59:09;5.60;;;1.40;;
3543;SDS011;1786;52.870;9.578;2023-04-25T10:01:36;5.50;;;1.50;;
3543;SDS011;1786;52.870;9.578;2023-04-25T10:04:10;3.97;;;1.27;;
3543;SDS011;1786;52.870;9.578;2023-04-25T10:06:44;3.30;;;1.27;;
3543;SDS011;1786;52.870;9.578;2023-04-25T10:09:15;6.17;;;1.53;;
3543;SDS011;1786;52.870;9.578;2023-04-25T10:11:42;4.23;;;1.00;;
3543;SDS011;1786;52.870;9.578;2023-04-25T10:14:09;3.60;;;1.20;;
3543;SDS011;1786;52.870;9.578;2023-04-25T10:16:36;3.03;;;1.10;;
3543;SDS011;1786;52.870;9.578;2023-04-25T10:19:03;2.27;;;1.10;;
3543;SDS011;1786;52.870;9.578;2023-04-25T10:21:30;1.63;;;1.23;;
3543;SDS011;1786;52.870;9.578;2023-04-25T10:23:57;6.47;;;1.47;;
3543;SDS011;1786;52.870;9.578;2023-04-25T10:26:24;3.67;;;1.60;;
3543;SDS011;1786;52.870;9.578;2023-04-25T10:28:57;2.87;;;1.57;;
3543;SDS011;1786;52.870;9.578;2023-04-25T10:31:24;4.60;;;1.50;;
3543;SDS011;1786;52.870;9.578;2023-04-25T10:33:51;4.20;;;1.43;;
3543;SDS011;1786;52.870;9.578;2023-04-25T10:36:19;6.10;;;1.40;;
3543;SDS011;1786;52.870;9.578;2023-04-25T10:38:45;3.10;;;1.37;;
3543;SDS011;1786;52.870;9.578;2023-04-25T10:41:13;6.33;;;1.47;;
3543;SDS011;1786;52.870;9.578;2023-04-25T10:43:41;3.67;;;1.80;;
3543;SDS011;1786;52.870;9.578;2023-04-25T10:46:17;4.67;;;1.40;;
3543;SDS011;1786;52.870;9.578;2023-04-25T10:48:49;4.70;;;1.40;;
3543;SDS011;1786;52.870;9.578;2023-04-25T10:51:17;8.00;;;1.27;;
3543;SDS011;1786;52.870;9.578;2023-04-25T10:53:45;5.17;;;2.00;;
3543;SDS011;1786;52.870;9.578;2023-04-25T10:56:19;7.63;;;1.97;;
3543;SDS011;1786;52.870;9.578;2023-04-25T10:58:47;2.40;;;1.23;;
3543;SDS011;1786;52.870;9.578;2023-04-25T11:01:21;9.70;;;1.40;;
3543;SDS011;1786;52.870;9.578;2023-04-25T11:03:47;6.77;;;1.20;;
3543;SDS011;1786;52.870;9.578;2023-04-25T11:06:34;3.23;;;1.20;;
3543;SDS011;1786;52.870;9.578;2023-04-25T11:09:03;5.10;;;1.30;;
3543;SDS011;1786;52.870;9.578;2023-04-25T11:11:36;6.63;;;1.47;;
3543;SDS011;1786;52.870;9.578;2023-04-25T11:14:03;2.90;;;1.33;;
3543;SDS011;1786;52.870;9.578;2023-04-25T11:16:29;1.80;;;1.23;;
3543;SDS011;1786;52.870;9.578;2023-04-25T11:18:57;1.43;;;1.13;;
3543;SDS011;1786;52.870;9.578;2023-04-25T11:21:26;1.93;;;1.00;;
3543;SDS011;1786;52.870;9.578;2023-04-25T11:23:56;1.27;;;0.80;;
3543;SDS011;1786;52.870;9.578;2023-04-25T11:26:23;3.83;;;1.10;;
3543;SDS011;1786;52.870;9.578;2023-04-25T11:28:50;3.57;;;1.27;;
3543;SDS011;1786;52.870;9.578;2023-04-25T11:31:20;2.60;;;1.20;;
3543;SDS011;1786;52.870;9.578;2023-04-25T11:33:46;3.63;;;1.43;;
3543;SDS011;1786;52.870;9.578;2023-04-25T11:36:13;1.83;;;1.50;;
3543;SDS011;1786;52.870;9.578;2023-04-25T11:38:40;4.20;;;1.50;;
3543;SDS011;1786;52.870;9.578;2023-04-25T11:41:07;2.03;;;1.20;;
3543;SDS011;1786;52.870;9.578;2023-04-25T11:43:34;3.70;;;1.27;;
3543;SDS011;1786;52.870;9.578;2023-04-25T11:46:00;2.83;;;1.50;;
3543;SDS011;1786;52.870;9.578;2023-04-25T11:48:27;6.87;;;1.57;;
3543;SDS011;1786;52.870;9.578;2023-04-25T11:51:02;3.70;;;1.43;;
3543;SDS011;1786;52.870;9.578;2023-04-25T11:53:30;1.20;;;1.10;;
3543;SDS011;1786;52.870;9.578;2023-04-25T11:55:56;2.90;;;1.80;;
3543;SDS011;1786;52.870;9.578;2023-04-25T11:58:23;4.60;;;1.63;;
3543;SDS011;1786;52.870;9.578;2023-04-25T12:00:49;2.47;;;1.00;;
3543;SDS011;1786;52.870;9.578;2023-04-25T12:03:17;6.77;;;1.30;;
3543;SDS011;1786;52.870;9.578;2023-04-25T12:05:44;2.53;;;0.90;;
3543;SDS011;1786;52.870;9.578;2023-04-25T12:08:12;2.37;;;1.27;;
3543;SDS011;1786;52.870;9.578;2023-04-25T12:10:39;1.00;;;0.90;;
3543;SDS011;1786;52.870;9.578;2023-04-25T12:13:22;1.87;;;1.17;;
3543;SDS011;1786;52.870;9.578;2023-04-25T12:15:49;4.90;;;1.10;;
3543;SDS011;1786;52.870;9.578;2023-04-25T12:18:20;1.70;;;0.90;;
3543;SDS011;1786;52.870;9.578;2023-04-25T12:20:47;3.57;;;1.50;;
3543;SDS011;1786;52.870;9.578;2023-04-25T12:23:14;2.50;;;1.20;;
3543;SDS011;1786;52.870;9.578;2023-04-25T12:25:41;4.07;;;1.30;;
3543;SDS011;1786;52.870;9.578;2023-04-25T12:28:18;2.70;;;1.27;;
3543;SDS011;1786;52.870;9.578;2023-04-25T12:33:25;4.03;;;1.40;;
3543;SDS011;1786;52.870;9.578;2023-04-25T12:35:53;2.30;;;1.20;;
3543;SDS011;1786;52.870;9.578;2023-04-25T12:38:21;2.73;;;1.00;;
3543;SDS011;1786;52.870;9.578;2023-04-25T12:40:48;3.87;;;1.17;;
3543;SDS011;1786;52.870;9.578;2023-04-25T12:43:15;4.63;;;1.17;;
3543;SDS011;1786;52.870;9.578;2023-04-25T12:45:42;5.03;;;1.30;;
3543;SDS011;1786;52.870;9.578;2023-04-25T12:48:08;6.57;;;1.60;;
3543;SDS011;1786;52.870;9.578;2023-04-25T12:50:35;1.27;;;1.00;;
3543;SDS011;1786;52.870;9.578;2023-04-25T12:53:01;2.53;;;1.33;;
3543;SDS011;1786;52.870;9.578;2023-04-25T12:55:28;6.83;;;1.30;;
3543;SDS011;1786;52.870;9.578;2023-04-25T12:57:54;5.20;;;0.83;;
3543;SDS011;1786;52.870;9.578;2023-04-25T13:00:21;2.50;;;1.30;;
3543;SDS011;1786;52.870;9.578;2023-04-25T13:02:47;1.50;;;1.10;;
3543;SDS011;1786;52.870;9.578;2023-04-25T13:05:14;3.20;;;0.90;;
3543;SDS011;1786;52.870;9.578;2023-04-25T13:07:41;1.20;;;1.10;;
3543;SDS011;1786;52.870;9.578;2023-04-25T13:10:08;1.63;;;0.90;;
3543;SDS011;1786;52.870;9.578;2023-04-25T13:12:34;3.57;;;1.23;;
3543;SDS011;1786;52.870;9.578;2023-04-25T13:15:01;2.73;;;1.00;;
3543;SDS011;1786;52.870;9.578;2023-04-25T13:17:27;6.47;;;1.50;;
3543;SDS011;1786;52.870;9.578;2023-04-25T13:19:54;9.07;;;1.63;;
3543;SDS011;1786;52.870;9.578;2023-04-25T13:22:20;2.73;;;1.20;;
3543;SDS011;1786;52.870;9.578;2023-04-25T13:24:47;4.80;;;1.23;;
3543;SDS011;1786;52.870;9.578;2023-04-25T13:27:14;2.10;;;1.27;;
3543;SDS011;1786;52.870;9.578;2023-04-25T13:29:40;5.10;;;1.70;;
3543;SDS011;1786;52.870;9.578;2023-04-25T13:32:08;4.60;;;1.30;;
3543;SDS011;1786;52.870;9.578;2023-04-25T13:34:35;4.30;;;0.93;;
3543;SDS011;1786;52.870;9.578;2023-04-25T13:37:01;13.97;;;1.80;;
3543;SDS011;1786;52.870;9.578;2023-04-25T13:39:28;3.37;;;1.43;;
3543;SDS011;1786;52.870;9.578;2023-04-25T13:41:55;2.03;;;1.20;;
3543;SDS011;1786;52.870;9.578;2023-04-25T13:44:22;4.70;;;1.20;;
3543;SDS011;1786;52.870;9.578;2023-04-25T13:46:48;4.63;;;1.30;;
3543;SDS011;1786;52.870;9.578;2023-04-25T13:49:15;2.20;;;0.90;;
3543;SDS011;1786;52.870;9.578;2023-04-25T13:51:42;2.93;;;1.30;;
3543;SDS011;1786;52.870;9.578;2023-04-25T13:54:08;4.00;;;1.00;;
3543;SDS011;1786;52.870;9.578;2023-04-25T13:56:35;6.00;;;1.20;;
3543;SDS011;1786;52.870;9.578;2023-04-25T13:59:01;2.53;;;1.53;;
3543;SDS011;1786;52.870;9.578;2023-04-25T14:01:28;5.37;;;1.40;;
3543;SDS011;1786;52.870;9.578;2023-04-25T14:03:57;2.40;;;1.17;;
3543;SDS011;1786;52.870;9.578;2023-04-25T14:06:23;1.17;;;1.10;;
3543;SDS011;1786;52.870;9.578;2023-04-25T14:08:50;6.10;;;1.50;;
3543;SDS011;1786;52.870;9.578;2023-04-25T14:11:17;3.77;;;1.20;;
3543;SDS011;1786;52.870;9.578;2023-04-25T14:13:45;2.53;;;0.90;;
3543;SDS011;1786;52.870;9.578;2023-04-25T14:16:11;4.60;;;1.30;;
3543;SDS011;1786;52.870;9.578;2023-04-25T14:18:38;2.33;;;1.83;;
3543;SDS011;1786;52.870;9.578;2023-04-25T14:21:05;1.43;;;1.33;;
3543;SDS011;1786;52.870;9.578;2023-04-25T14:23:31;2.50;;;1.00;;
3543;SDS011;1786;52.870;9.578;2023-04-25T14:25:58;3.00;;;1.20;;
3543;SDS011;1786;52.870;9.578;2023-04-25T14:28:24;2.87;;;1.20;;
3543;SDS011;1786;52.870;9.578;2023-04-25T14:30:51;3.47;;;1.10;;
3543;SDS011;1786;52.870;9.578;2023-04-25T14:33:18;1.43;;;0.90;;
3543;SDS011;1786;52.870;9.578;2023-04-25T14:35:44;1.53;;;0.90;;
3543;SDS011;1786;52.870;9.578;2023-04-25T14:38:11;2.43;;;1.60;;
3543;SDS011;1786;52.870;9.578;2023-04-25T14:40:38;3.77;;;1.33;;
3543;SDS011;1786;52.870;9.578;2023-04-25T14:43:04;2.77;;;1.20;;
3543;SDS011;1786;52.870;9.578;2023-04-25T14:45:31;4.93;;;1.20;;
3543;SDS011;1786;52.870;9.578;2023-04-25T14:47:57;2.87;;;1.30;;
3543;SDS011;1786;52.870;9.578;2023-04-25T14:50:24;5.23;;;1.40;;
3543;SDS011;1786;52.870;9.578;2023-04-25T14:52:51;7.33;;;1.27;;
3543;SDS011;1786;52.870;9.578;2023-04-25T14:55:18;7.83;;;1.17;;
3543;SDS011;1786;52.870;9.578;2023-04-25T14:57:45;5.40;;;1.23;;
3543;SDS011;1786;52.870;9.578;2023-04-25T15:00:12;3.13;;;1.23;;
3543;SDS011;1786;52.870;9.578;2023-04-25T15:02:42;2.77;;;1.43;;
3543;SDS011;1786;52.870;9.578;2023-04-25T15:05:09;3.37;;;1.27;;
3543;SDS011;1786;52.870;9.578;2023-04-25T15:07:36;5.10;;;1.10;;
3543;SDS011;1786;52.870;9.578;2023-04-25T15:10:03;3.70;;;1.30;;
3543;SDS011;1786;52.870;9.578;2023-04-25T15:12:29;5.03;;;1.90;;
3543;SDS011;1786;52.870;9.578;2023-04-25T15:14:56;2.87;;;1.10;;
3543;SDS011;1786;52.870;9.578;2023-04-25T15:17:22;7.27;;;1.60;;
3543;SDS011;1786;52.870;9.578;2023-04-25T15:19:49;3.67;;;1.83;;
3543;SDS011;1786;52.870;9.578;2023-04-25T15:22:16;3.60;;;1.30;;
3543;SDS011;1786;52.870;9.578;2023-04-25T15:24:42;5.07;;;1.47;;
3543;SDS011;1786;52.870;9.578;2023-04-25T15:27:09;7.83;;;1.80;;
3543;SDS011;1786;52.870;9.578;2023-04-25T15:29:35;1.53;;;0.90;;